Time;durP1;ratioP1;P1;durP2;ratioP2;P2;SDS_P1;SDS_P2;PMS_P1;PMS_P2;Temp;Humidity;BMP_temperature;BMP_pressure;BME280_temperature;BME280_humidity;BME280_pressure;Samples;Min_cycle;Max_cycle;Signal;HPM_P1;HPM_P2
2021/04/12 00:02:32;;;;;;;;;;;;;;;7.23;65.37;100539.25;10392317;28;19976;-68
2021/04/12 00:07:35;;;;;;;;;;;;;;;7.31;65.04;100532.66;10393196;28;20300;-69
2021/04/12 00:12:42;;;;;;;;;;;;;;;7.28;65.38;100523.13;10391016;28;20040;-69
2021/04/12 00:17:44;;;;;;;;;;;;;;;7.39;64.92;100541.81;10381165;28;20020;-68
2021/04/12 00:22:56;;;;;;;;;;;;;;;7.37;65.04;100537.56;10393876;28;19921;-68
2021/04/12 00:28:06;;;;;;;;;;;;;;;7.32;64.75;100537.84;10394525;28;19933;-69
2021/04/12 00:33:11;;;;;;;;;;;;;;;7.30;65.00;100552.16;10383729;28;19921;-69
2021/04/12 00:38:23;;;;;;;;;;;;;;;7.34;63.90;100551.00;10390274;28;19959;-69
2021/04/12 00:43:36;;;;;;;;;;;;;;;7.14;64.77;100553.06;10380465;28;20612;-69
2021/04/12 00:48:42;;;;;;;;;;;;;;;7.23;64.40;100567.53;10390527;28;20143;-70
2021/04/12 00:54:12;;;;;;;;;;;;;;;7.29;64.76;100580.41;10401732;28;19925;-68
2021/04/12 00:59:26;;;;;;;;;;;;;;;7.35;64.12;100577.38;10400907;28;19909;-69
2021/04/12 01:04:59;;;;;;;;;;;;;;;7.29;63.91;100561.88;10408707;28;19929;-69
2021/04/12 01:10:00;;;;;;;;;;;;;;;7.32;63.58;100572.28;10390941;28;20338;-70
2021/04/12 01:15:27;;;;;;;;;;;;;;;6.88;65.45;100581.13;10411356;28;19984;-67
2021/04/12 01:20:48;;;;;;;;;;;;;;;7.19;64.17;100584.56;10398772;28;19921;-69
2021/04/12 01:26:21;;;;;;;;;;;;;;;7.06;64.22;100590.59;10339374;28;19947;-70
2021/04/12 01:31:28;;;;;;;;;;;;;;;7.17;63.82;100605.00;10422986;28;20302;-69
2021/04/12 01:36:36;;;;;;;;;;;;;;;7.19;63.61;100613.69;10396899;28;19920;-69
2021/04/12 01:41:46;;;;;;;;;;;;;;;7.19;63.16;100624.28;10402215;28;19950;-72
2021/04/12 01:46:50;;;;;;;;;;;;;;;6.96;63.64;100629.16;10419339;28;19929;-71
2021/04/12 01:52:02;;;;;;;;;;;;;;;6.63;64.70;100632.84;10440181;28;20011;-68
2021/04/12 01:57:03;;;;;;;;;;;;;;;6.41;66.15;100627.06;10381937;28;19921;-68
2021/04/12 02:02:10;;;;;;;;;;;;;;;6.62;64.69;100640.88;10393946;28;19921;-70
2021/04/12 02:07:17;;;;;;;;;;;;;;;6.70;65.32;100643.94;10400808;28;19928;-69
2021/04/12 02:12:36;;;;;;;;;;;;;;;7.01;63.94;100642.97;10376069;28;19975;-69
2021/04/12 02:17:49;;;;;;;;;;;;;;;6.57;64.11;100654.34;10371215;28;20032;-69
2021/04/12 02:23:09;;;;;;;;;;;;;;;6.27;64.83;100655.16;10381039;28;20499;-69
2021/04/12 02:28:12;;;;;;;;;;;;;;;6.43;64.51;100667.53;10390361;28;19971;-69
2021/04/12 02:33:26;;;;;;;;;;;;;;;6.70;64.20;100675.69;10392612;28;19921;-69
2021/04/12 02:38:29;;;;;;;;;;;;;;;6.55;63.21;100677.41;10390485;28;19959;-69
2021/04/12 02:43:49;;;;;;;;;;;;;;;6.77;62.89;100681.44;10393318;28;19920;-70
2021/04/12 02:49:06;;;;;;;;;;;;;;;6.84;62.32;100688.94;10392231;28;19921;-70
2021/04/12 02:54:07;;;;;;;;;;;;;;;6.75;62.88;100688.63;10376568;28;19929;-70
2021/04/12 02:59:14;;;;;;;;;;;;;;;6.85;62.40;100700.41;10422442;28;19915;-70
2021/04/12 03:04:18;;;;;;;;;;;;;;;6.92;61.40;100700.88;10410318;28;19924;-70
2021/04/12 03:09:31;;;;;;;;;;;;;;;6.75;62.26;100707.16;10427491;28;19943;-73
2021/04/12 03:14:51;;;;;;;;;;;;;;;6.72;62.21;100701.13;10420991;28;19928;-71
2021/04/12 03:20:01;;;;;;;;;;;;;;;6.86;61.75;100696.78;10392443;28;19921;-69
2021/04/12 03:25:16;;;;;;;;;;;;;;;6.58;62.74;100713.41;10391631;28;19956;-70
2021/04/12 03:30:40;;;;;;;;;;;;;;;6.53;62.62;100718.94;10405243;28;19929;-69
2021/04/12 03:35:48;;;;;;;;;;;;;;;6.52;62.09;100720.75;10351608;28;20373;-69
2021/04/12 03:41:15;;;;;;;;;;;;;;;6.64;61.78;100707.78;10365690;23;20067;-55
2021/04/12 03:46:41;;;;;;;;;;;;;;;6.54;62.04;100718.00;10373893;28;20385;-56
2021/04/12 03:51:54;;;;;;;;;;;;;;;6.69;60.86;100724.22;10333988;28;20485;-57
2021/04/12 03:56:54;;;;;;;;;;;;;;;6.31;61.75;100736.00;10343099;28;19930;-56
2021/04/12 04:02:14;;;;;;;;;;;;;;;6.04;62.20;100745.47;10318191;28;20624;-54
2021/04/12 04:07:33;;;;;;;;;;;;;;;6.13;61.72;100745.81;10339453;28;20257;-60
2021/04/12 04:12:43;;;;;;;;;;;;;;;5.78;62.26;100767.00;10336432;28;20819;-56
2021/04/12 04:18:02;;;;;;;;;;;;;;;6.01;60.41;100773.75;10330148;28;19972;-56
2021/04/12 04:23:23;;;;;;;;;;;;;;;5.73;60.05;100792.78;10337133;28;19961;-55
2021/04/12 04:28:42;;;;;;;;;;;;;;;5.59;59.89;100798.78;10329562;28;19972;-57
2021/04/12 04:33:52;;;;;;;;;;;;;;;5.57;60.36;100805.94;10322111;28;19926;-58
2021/04/12 04:38:55;;;;;;;;;;;;;;;5.53;60.67;100808.81;10335851;28;19921;-57
2021/04/12 04:44:05;;;;;;;;;;;;;;;5.76;61.30;100819.03;10327202;28;19933;-57
2021/04/12 04:49:12;;;;;;;;;;;;;;;5.78;60.55;100824.25;10330719;28;20098;-55
2021/04/12 04:54:32;;;;;;;;;;;;;;;5.76;61.34;100828.78;10337106;28;20406;-58
2021/04/12 04:59:44;;;;;;;;;;;;;;;5.96;59.80;100828.59;10319486;28;20327;-56
2021/04/12 05:05:05;;;;;;;;;;;;;;;6.05;59.43;100837.00;10340047;28;19921;-54
2021/04/12 05:10:17;;;;;;;;;;;;;;;6.21;59.38;100858.22;10334925;28;20032;-56
2021/04/12 05:15:24;;;;;;;;;;;;;;;6.42;59.56;100866.81;10312764;28;20333;-59
2021/04/12 05:20:43;;;;;;;;;;;;;;;5.90;59.81;100881.78;10326293;28;20397;-54
2021/04/12 05:25:44;;;;;;;;;;;;;;;6.17;60.04;100899.78;10330489;28;19965;-55
2021/04/12 05:30:45;;;;;;;;;;;;;;;6.25;60.21;100897.63;10314805;28;19928;-57
2021/04/12 05:35:58;;;;;;;;;;;;;;;6.32;59.31;100914.88;10314229;28;19921;-56
2021/04/12 05:41:15;;;;;;;;;;;;;;;6.21;60.46;100933.09;10334121;28;19930;-58
2021/04/12 05:46:22;;;;;;;;;;;;;;;6.15;60.69;100936.03;10327009;28;19972;-57
2021/04/12 05:51:27;;;;;;;;;;;;;;;6.22;60.13;100944.53;10332061;28;20452;-56
2021/04/12 05:56:34;;;;;;;;;;;;;;;6.31;60.68;100952.84;10322981;28;19976;-59
2021/04/12 06:01:47;;;;;;;;;;;;;;;6.43;60.46;100953.16;10310534;28;20012;-60
2021/04/12 06:07:13;;;;;;;;;;;;;;;6.66;59.01;100958.06;10316916;28;19921;-58
2021/04/12 06:12:26;;;;;;;;;;;;;;;6.82;57.44;100950.16;10316788;28;20491;-57
2021/04/12 06:17:39;;;;;;;;;;;;;;;7.00;57.79;100958.06;10316772;28;20690;-57
2021/04/12 06:22:49;;;;;;;;;;;;;;;6.61;57.85;100969.84;10320799;28;19929;-53
2021/04/12 06:27:59;;;;;;;;;;;;;;;7.00;57.41;100969.50;10309577;28;19930;-56
2021/04/12 06:33:12;;;;;;;;;;;;;;;7.26;55.76;100975.16;10300650;28;19930;-54
2021/04/12 06:38:19;;;;;;;;;;;;;;;7.35;55.10;100985.25;10306653;28;19985;-57
2021/04/12 06:43:29;;;;;;;;;;;;;;;7.52;55.30;100991.41;10311553;28;20048;-56
2021/04/12 06:49:01;;;;;;;;;;;;;;;7.54;54.70;100989.53;10283186;28;20561;-57
2021/04/12 06:54:12;;;;;;;;;;;;;;;7.71;53.34;100989.41;10312102;28;19999;-54
2021/04/12 06:59:14;;;;;;;;;;;;;;;7.75;52.13;101001.56;10305767;28;20016;-57
2021/04/12 07:04:33;;;;;;;;;;;;;;;7.73;52.85;101013.19;10309990;28;20253;-55
2021/04/12 07:09:40;;;;;;;;;;;;;;;8.02;52.54;101010.69;10307762;28;19921;-54
2021/04/12 07:15:00;;;;;;;;;;;;;;;8.08;52.01;101019.13;10303349;28;19921;-57
2021/04/12 07:20:01;;;;;;;;;;;;;;;7.66;51.86;101033.88;10307036;28;20031;-57
2021/04/12 07:25:21;;;;;;;;;;;;;;;8.04;51.36;101046.75;10306488;28;19928;-56
2021/04/12 07:30:53;;;;;;;;;;;;;;;8.06;50.17;101044.91;10280843;28;20051;-58
2021/04/12 07:36:14;;;;;;;;;;;;;;;8.55;49.47;101040.34;10306723;28;19980;-56
2021/04/12 07:41:33;;;;;;;;;;;;;;;9.09;48.11;101056.53;10306779;28;19928;-57
2021/04/12 07:46:35;;;;;;;;;;;;;;;8.96;48.25;101058.22;10308111;28;20072;-55
2021/04/12 07:51:55;;;;;;;;;;;;;;;8.55;46.02;101072.19;10308075;28;20143;-55
2021/04/12 07:57:02;;;;;;;;;;;;;;;8.59;47.37;101077.22;10285841;28;20451;-60
2021/04/12 08:02:12;;;;;;;;;;;;;;;8.90;46.28;101070.06;10309362;28;20236;-62
2021/04/12 08:07:31;;;;;;;;;;;;;;;9.37;46.53;101097.34;10305884;28;19929;-57
2021/04/12 08:12:32;;;;;;;;;;;;;;;10.22;45.54;101090.16;10297450;28;20008;-55
2021/04/12 08:17:52;;;;;;;;;;;;;;;9.08;44.57;101097.31;10304571;28;20287;-55
2021/04/12 08:22:55;;;;;;;;;;;;;;;8.55;45.50;101093.41;10302900;28;20459;-56
2021/04/12 08:28:08;;;;;;;;;;;;;;;7.95;47.67;101105.63;10305757;28;19929;-56
2021/04/12 08:33:44;;;;;;;;;;;;;;;7.74;48.04;101113.81;10292341;28;20023;-58
2021/04/12 08:38:50;;;;;;;;;;;;;;;7.95;48.57;101122.38;10235223;28;19965;-55
2021/04/12 08:43:57;;;;;;;;;;;;;;;8.59;46.75;101121.50;10315075;28;20410;-58
2021/04/12 08:49:01;;;;;;;;;;;;;;;8.37;45.75;101135.09;10293618;28;20084;-56
2021/04/12 08:54:05;;;;;;;;;;;;;;;9.13;44.69;101137.75;10311871;28;20429;-57
2021/04/12 08:59:30;;;;;;;;;;;;;;;9.66;44.11;101140.69;10302530;28;19930;-60
2021/04/12 09:04:37;;;;;;;;;;;;;;;9.73;43.13;101151.81;10301660;28;20657;-58
2021/04/12 09:09:53;;;;;;;;;;;;;;;9.59;42.38;101150.00;10307729;28;20409;-55
2021/04/12 09:15:09;;;;;;;;;;;;;;;9.51;42.76;101153.13;10305775;28;20016;-57
2021/04/12 09:20:10;;;;;;;;;;;;;;;10.11;41.83;101151.19;10297838;28;20243;-58
2021/04/12 09:25:19;;;;;;;;;;;;;;;10.27;39.48;101151.91;10311187;28;20020;-59
2021/04/12 09:30:20;;;;;;;;;;;;;;;9.96;39.67;101163.66;10308247;28;20378;-58
2021/04/12 09:35:42;;;;;;;;;;;;;;;10.23;39.45;101168.16;10307872;28;19929;-54
2021/04/12 09:40:58;;;;;;;;;;;;;;;11.28;38.77;101162.09;10308075;28;19929;-54
2021/04/12 09:46:17;;;;;;;;;;;;;;;12.28;33.85;101148.84;10307229;28;19933;-58
2021/04/12 09:51:37;;;;;;;;;;;;;;;11.43;35.77;101159.31;10305848;28;19984;-54
2021/04/12 09:56:59;;;;;;;;;;;;;;;11.49;36.83;101151.72;10304799;28;19933;-59
2021/04/12 10:02:18;;;;;;;;;;;;;;;11.25;36.87;101159.63;10286439;28;19932;-60
2021/04/12 10:07:24;;;;;;;;;;;;;;;10.17;39.73;101164.09;10296872;28;20041;-59
2021/04/12 10:12:38;;;;;;;;;;;;;;;10.09;40.05;101172.56;10360451;22;19929;-60
2021/04/12 10:17:45;;;;;;;;;;;;;;;9.81;39.91;101176.09;10370771;28;21510;-59
2021/04/12 10:22:50;;;;;;;;;;;;;;;12.94;34.77;101161.75;10362404;28;19922;-59
2021/04/12 10:27:52;;;;;;;;;;;;;;;11.07;35.78;101166.22;10348526;28;19929;-60
2021/04/12 10:32:57;;;;;;;;;;;;;;;12.90;31.59;101165.63;10345533;28;19924;-59
2021/04/12 10:38:17;;;;;;;;;;;;;;;12.59;34.39;101162.56;10363703;28;19925;-59
2021/04/12 10:43:21;;;;;;;;;;;;;;;15.74;29.26;101155.94;10348041;28;20032;-62
2021/04/12 10:48:26;;;;;;;;;;;;;;;16.50;26.28;101150.06;10335800;28;20010;-61
2021/04/12 10:53:56;;;;;;;;;;;;;;;13.58;29.61;101153.25;10340697;28;20450;-61
2021/04/12 10:59:16;;;;;;;;;;;;;;;11.55;33.95;101153.13;10269914;28;19921;-60
2021/04/12 11:04:42;;;;;;;;;;;;;;;13.08;32.74;101156.19;10344101;28;20018;-60
2021/04/12 11:09:53;;;;;;;;;;;;;;;18.24;25.78;101161.53;10349330;28;19929;-61
2021/04/12 11:15:04;;;;;;;;;;;;;;;15.26;28.52;101143.97;10337081;28;19937;-61
2021/04/12 11:20:28;;;;;;;;;;;;;;;13.25;30.94;101148.69;10341164;28;19928;-61
2021/04/12 11:25:48;;;;;;;;;;;;;;;12.13;31.87;101155.28;10326451;28;19936;-60
2021/04/12 11:31:01;;;;;;;;;;;;;;;11.16;34.39;101162.94;10335557;28;19929;-60
2021/04/12 11:36:25;;;;;;;;;;;;;;;12.88;31.95;101156.84;10339977;28;20373;-60
2021/04/12 11:41:33;;;;;;;;;;;;;;;11.86;34.87;101166.97;10298582;28;20773;-60
2021/04/12 11:46:47;;;;;;;;;;;;;;;15.63;29.75;101156.03;10338829;28;20139;-60
2021/04/12 11:51:54;;;;;;;;;;;;;;;24.62;17.89;101148.06;10350526;28;20330;-59
2021/04/12 11:57:14;;;;;;;;;;;;;;;23.92;17.75;101144.97;10345150;28;19925;-61
2021/04/12 12:02:27;;;;;;;;;;;;;;;25.70;15.04;101145.09;10344758;28;19929;-60
2021/04/12 12:07:40;;;;;;;;;;;;;;;21.48;18.45;101149.13;10349936;28;20280;-61
2021/04/12 12:12:48;;;;;;;;;;;;;;;18.57;21.14;101154.66;10343020;28;19928;-59
2021/04/12 12:18:03;;;;;;;;;;;;;;;16.71;23.57;101154.44;10351945;28;20778;-58
2021/04/12 12:23:31;;;;;;;;;;;;;;;14.82;26.02;101156.69;10346465;28;19930;-61
2021/04/12 12:28:44;;;;;;;;;;;;;;;14.22;27.63;101153.56;10340821;28;19925;-61
2021/04/12 12:33:52;;;;;;;;;;;;;;;14.04;27.93;101150.56;10321993;28;19976;-60
2021/04/12 12:39:03;;;;;;;;;;;;;;;15.21;26.97;101135.50;10341902;28;20393;-59
2021/04/12 12:44:09;;;;;;;;;;;;;;;15.99;26.38;101129.59;10342238;28;19929;-60
2021/04/12 12:49:19;;;;;;;;;;;;;;;14.63;27.08;101141.28;10341017;28;20445;-61
2021/04/12 12:54:43;;;;;;;;;;;;;;;13.47;29.11;101137.22;10348246;28;20045;-61
2021/04/12 12:59:47;;;;;;;;;;;;;;;13.81;28.89;101133.66;10342548;28;19933;-61
2021/04/12 13:04:57;;;;;;;;;;;;;;;13.93;29.20;101148.72;10345513;28;19935;-61
2021/04/12 13:10:02;;;;;;;;;;;;;;;14.46;27.80;101148.88;10361338;28;19936;-60
2021/04/12 13:15:22;;;;;;;;;;;;;;;14.62;28.60;101151.16;10341248;28;20433;-60
2021/04/12 13:20:32;;;;;;;;;;;;;;;13.11;30.09;101170.31;10344220;28;19988;-61
2021/04/12 13:25:36;;;;;;;;;;;;;;;13.40;31.28;101186.78;10341652;28;19921;-61
2021/04/12 13:30:39;;;;;;;;;;;;;;;12.55;36.30;101193.16;10337894;28;20002;-61
2021/04/12 13:35:42;;;;;;;;;;;;;;;12.40;39.19;101183.59;10359981;28;19960;-61
2021/04/12 13:40:48;;;;;;;;;;;;;;;11.82;41.33;101170.81;10388199;28;19909;-61
2021/04/12 13:45:49;;;;;;;;;;;;;;;11.71;42.01;101176.91;10371874;28;19968;-60
2021/04/12 13:50:59;;;;;;;;;;;;;;;11.64;42.06;101187.13;10362157;28;19941;-60
2021/04/12 14:02:17;;;;;;;;;;;;;;;11.28;42.76;101185.22;10321224;28;19917;-60
2021/04/12 14:07:28;;;;;;;;;;;;;;;11.20;43.17;101183.09;10336009;28;19986;-64
2021/04/12 14:12:32;;;;;;;;;;;;;;;11.25;42.59;101175.63;10326414;28;19967;-61
2021/04/12 14:17:35;;;;;;;;;;;;;;;11.43;41.63;101183.31;10338558;28;19979;-60
2021/04/12 14:22:49;;;;;;;;;;;;;;;11.43;40.88;101183.31;10337970;28;19921;-60
2021/04/12 14:27:50;;;;;;;;;;;;;;;11.32;41.42;101186.72;10332161;28;19920;-61
2021/04/12 14:33:02;;;;;;;;;;;;;;;11.46;41.74;101191.09;10344766;28;19925;-61
2021/04/12 14:38:09;;;;;;;;;;;;;;;11.09;42.86;101183.81;10346213;28;20393;-61
2021/04/12 14:43:18;;;;;;;;;;;;;;;11.24;42.77;101195.22;10339086;28;19925;-61
2021/04/12 14:48:37;;;;;;;;;;;;;;;11.26;42.76;101182.66;10343860;28;20409;-63
2021/04/12 14:53:42;;;;;;;;;;;;;;;11.31;42.26;101175.19;10348162;28;19982;-61
2021/04/12 14:58:55;;;;;;;;;;;;;;;11.40;42.23;101183.53;10351731;28;19921;-61
2021/04/12 15:04:05;;;;;;;;;;;;;;;11.84;40.90;101184.88;10376751;28;19921;-62
2021/04/12 15:09:06;;;;;;;;;;;;;;;11.36;35.43;101184.69;10358706;28;19987;-61
2021/04/12 15:14:13;;;;;;;;;;;;;;;11.02;36.45;101190.53;10340068;28;19932;-61
2021/04/12 15:19:22;;;;;;;;;;;;;;;11.18;38.84;101192.97;10327300;28;20071;-61
2021/04/12 15:24:26;;;;;;;;;;;;;;;11.41;37.38;101211.88;10346096;28;19921;-61
2021/04/12 15:29:31;;;;;;;;;;;;;;;11.10;37.86;101209.50;10332367;28;20018;-61
2021/04/12 15:34:34;;;;;;;;;;;;;;;10.74;38.64;101224.31;10360765;28;19932;-60
2021/04/12 15:39:36;;;;;;;;;;;;;;;10.32;40.19;101214.63;10357664;28;19929;-61
2021/04/12 15:44:43;;;;;;;;;;;;;;;10.29;41.57;101226.31;10345075;28;19921;-61
2021/04/12 15:49:50;;;;;;;;;;;;;;;10.34;41.48;101232.22;10347248;28;19925;-60
2021/04/12 15:55:10;;;;;;;;;;;;;;;10.09;40.36;101227.59;10339911;28;20010;-60
2021/04/12 16:00:13;;;;;;;;;;;;;;;9.94;40.50;101239.16;10345765;28;21082;-61
2021/04/12 16:05:14;;;;;;;;;;;;;;;9.50;40.40;101255.09;10338523;28;20014;-61
2021/04/12 16:10:34;;;;;;;;;;;;;;;8.77;44.38;101270.88;10332651;28;20417;-60
2021/04/12 16:15:37;;;;;;;;;;;;;;;8.36;46.18;101288.13;10343694;28;20374;-60
2021/04/12 16:20:57;;;;;;;;;;;;;;;7.80;48.58;101300.81;10344839;28;19928;-60
2021/04/12 16:26:13;;;;;;;;;;;;;;;8.13;48.79;101311.44;10339021;28;20000;-62
2021/04/12 16:31:33;;;;;;;;;;;;;;;7.99;50.12;101321.06;10335492;28;19925;-61
2021/04/12 16:36:44;;;;;;;;;;;;;;;8.28;50.46;101324.81;10344805;28;19921;-60
2021/04/12 16:41:49;;;;;;;;;;;;;;;8.21;49.67;101323.44;10342681;28;20334;-60
2021/04/12 16:47:09;;;;;;;;;;;;;;;8.26;49.93;101321.41;10344266;28;19936;-61
2021/04/12 16:52:11;;;;;;;;;;;;;;;8.88;49.08;101310.94;10344342;28;19936;-61
2021/04/12 16:57:18;;;;;;;;;;;;;;;8.98;47.06;101303.31;10344400;28;20061;-60
2021/04/12 17:02:28;;;;;;;;;;;;;;;9.01;45.74;101306.66;10343244;28;19932;-60
2021/04/12 17:07:45;;;;;;;;;;;;;;;8.81;47.23;101314.88;10348349;28;19928;-60
2021/04/12 17:12:51;;;;;;;;;;;;;;;8.63;49.84;101308.78;10338700;28;19971;-60
2021/04/12 17:17:57;;;;;;;;;;;;;;;8.79;48.46;101309.66;10343110;28;21186;-60
2021/04/12 17:23:02;;;;;;;;;;;;;;;8.57;50.56;101303.81;10348556;28;19964;-61
2021/04/12 17:28:11;;;;;;;;;;;;;;;8.24;53.59;101310.00;10352896;28;19937;-62
2021/04/12 17:33:24;;;;;;;;;;;;;;;8.28;53.18;101308.91;10342790;28;19983;-61
2021/04/12 17:38:28;;;;;;;;;;;;;;;8.30;52.81;101322.94;10345674;28;19930;-61
2021/04/12 17:43:30;;;;;;;;;;;;;;;8.27;53.41;101320.44;10385160;23;19964;-67
2021/04/12 17:48:35;;;;;;;;;;;;;;;8.19;54.24;101328.81;10357551;28;19957;-68
2021/04/12 17:53:37;;;;;;;;;;;;;;;8.07;55.53;101338.28;10325823;28;19949;-68
2021/04/12 17:58:40;;;;;;;;;;;;;;;7.79;57.62;101342.38;10338843;28;20002;-68
2021/04/12 18:03:46;;;;;;;;;;;;;;;7.62;58.02;101347.69;10308880;28;20341;-68
2021/04/12 18:08:46;;;;;;;;;;;;;;;7.29;59.67;101351.06;10335398;28;20578;-66
2021/04/12 18:13:50;;;;;;;;;;;;;;;7.20;60.09;101351.53;10333841;28;19929;-69
2021/04/12 18:18:53;;;;;;;;;;;;;;;7.01;60.37;101360.38;10319881;28;20709;-67
2021/04/12 18:24:04;;;;;;;;;;;;;;;7.06;59.43;101363.66;10324154;28;19971;-66
2021/04/12 18:29:11;;;;;;;;;;;;;;;7.18;59.36;101366.66;10321289;28;20004;-66
2021/04/12 18:34:18;;;;;;;;;;;;;;;7.15;59.70;101377.38;10320404;28;20057;-68
2021/04/12 18:39:22;;;;;;;;;;;;;;;7.14;60.10;101373.00;10321126;28;20056;-66
2021/04/12 18:44:36;;;;;;;;;;;;;;;7.04;59.65;101376.09;10318967;28;20486;-66
2021/04/12 18:49:39;;;;;;;;;;;;;;;6.98;59.79;101381.69;10314682;28;20011;-67
2021/04/12 18:54:44;;;;;;;;;;;;;;;6.94;60.15;101387.22;10307237;28;19933;-67
2021/04/12 19:00:02;;;;;;;;;;;;;;;7.07;59.86;101389.19;10301088;28;19945;-65
2021/04/12 19:05:02;;;;;;;;;;;;;;;6.85;60.46;101386.69;10322078;28;19949;-64
2021/04/12 19:10:09;;;;;;;;;;;;;;;6.93;60.64;101391.63;10324564;28;19929;-69
2021/04/12 19:15:29;;;;;;;;;;;;;;;7.04;60.22;101405.22;10306349;28;20056;-66
2021/04/12 19:20:30;;;;;;;;;;;;;;;7.20;59.63;101404.50;10324003;28;19976;-67
2021/04/12 19:25:38;;;;;;;;;;;;;;;7.13;59.31;101413.66;10323396;28;19980;-67
2021/04/12 19:31:03;;;;;;;;;;;;;;;7.13;59.50;101419.84;10305572;28;19926;-66
2021/04/12 19:36:28;;;;;;;;;;;;;;;7.16;59.65;101424.09;10305309;28;20630;-64
2021/04/12 19:41:47;;;;;;;;;;;;;;;7.21;59.79;101422.09;10314819;28;20315;-66
2021/04/12 19:47:07;;;;;;;;;;;;;;;7.21;60.41;101415.00;10317166;28;19930;-66
2021/04/12 19:52:18;;;;;;;;;;;;;;;7.18;59.86;101422.25;10338457;28;20040;-66
2021/04/12 19:57:24;;;;;;;;;;;;;;;7.14;59.76;101420.69;10308455;28;20356;-68
2021/04/12 20:02:34;;;;;;;;;;;;;;;7.14;59.96;101428.63;10294905;28;19933;-65
2021/04/12 20:07:40;;;;;;;;;;;;;;;7.00;60.92;101424.84;10330043;28;19993;-65
2021/04/12 20:12:50;;;;;;;;;;;;;;;7.02;60.52;101422.97;10359767;28;19934;-66
2021/04/12 20:18:00;;;;;;;;;;;;;;;7.01;61.16;101421.25;10334094;28;19921;-65
2021/04/12 20:23:13;;;;;;;;;;;;;;;7.06;59.96;101421.91;10325100;28;19930;-65
2021/04/12 20:28:32;;;;;;;;;;;;;;;6.98;59.41;101416.13;10324819;28;20001;-67
2021/04/12 20:33:39;;;;;;;;;;;;;;;6.87;59.31;101423.69;10322558;28;19922;-66
2021/04/12 20:39:07;;;;;;;;;;;;;;;6.77;58.78;101425.91;10320699;28;20345;-65
2021/04/12 20:44:27;;;;;;;;;;;;;;;6.60;59.38;101431.94;10331989;28;19972;-68
2021/04/12 20:49:28;;;;;;;;;;;;;;;6.24;59.01;101432.66;10326479;28;19936;-65
2021/04/12 20:54:29;;;;;;;;;;;;;;;6.26;59.85;101435.22;10321982;28;19922;-66
2021/04/12 20:59:38;;;;;;;;;;;;;;;6.24;59.18;101435.28;10335193;28;19972;-67
2021/04/12 21:04:42;;;;;;;;;;;;;;;5.97;59.76;101443.47;10325369;28;19929;-68
2021/04/12 21:09:43;;;;;;;;;;;;;;;5.83;60.09;101414.13;10328314;28;19921;-67
2021/04/12 21:14:44;;;;;;;;;;;;;;;6.17;59.44;101445.28;10327362;28;19929;-64
2021/04/12 21:19:45;;;;;;;;;;;;;;;5.71;60.89;101441.91;10324504;28;20392;-65
2021/04/12 21:25:07;;;;;;;;;;;;;;;6.01;60.51;101444.22;10340863;28;19929;-65
2021/04/12 21:30:15;;;;;;;;;;;;;;;5.89;60.31;101450.00;10327332;28;19929;-65
2021/04/12 21:35:15;;;;;;;;;;;;;;;5.59;60.12;101456.47;10327262;28;19929;-67
2021/04/12 21:40:32;;;;;;;;;;;;;;;5.55;60.60;101454.88;10330881;28;19933;-66
2021/04/12 21:45:32;;;;;;;;;;;;;;;5.82;59.86;101444.09;10325431;28;19983;-65
2021/04/12 21:50:38;;;;;;;;;;;;;;;5.99;59.63;101451.34;10326832;28;19925;-67
2021/04/12 21:55:58;;;;;;;;;;;;;;;5.92;59.25;101450.72;10300053;28;19926;-67
2021/04/12 22:01:01;;;;;;;;;;;;;;;6.01;59.67;101449.50;10310163;28;19987;-67
2021/04/12 22:06:23;;;;;;;;;;;;;;;5.97;59.09;101446.13;10318366;28;19922;-67
2021/04/12 22:11:26;;;;;;;;;;;;;;;5.62;59.70;101447.56;10326481;28;19971;-67
2021/04/12 22:16:33;;;;;;;;;;;;;;;5.85;59.64;101454.53;10313629;28;20627;-67
2021/04/12 22:21:44;;;;;;;;;;;;;;;5.92;59.60;101448.09;10320818;28;19972;-67
2021/04/12 22:27:15;;;;;;;;;;;;;;;5.78;59.45;101458.34;10319455;28;20376;-65
2021/04/12 22:32:38;;;;;;;;;;;;;;;5.60;59.31;101452.03;10296024;28;19968;-66
2021/04/12 22:43:02;;;;;;;;;;;;;;;5.40;60.12;101463.41;10304066;28;19950;-66
2021/04/12 22:48:06;;;;;;;;;;;;;;;5.35;60.11;101460.94;10316137;28;19953;-66
2021/04/12 22:53:11;;;;;;;;;;;;;;;5.48;59.87;101461.34;10314467;28;19922;-65
2021/04/12 22:58:33;;;;;;;;;;;;;;;5.55;58.58;101472.50;10311873;28;20015;-65
2021/04/12 23:03:36;;;;;;;;;;;;;;;5.54;58.32;101461.09;10309536;28;19937;-66
2021/04/12 23:08:36;;;;;;;;;;;;;;;5.43;57.75;101464.13;10315097;28;19973;-65
2021/04/12 23:13:49;;;;;;;;;;;;;;;5.47;57.67;101470.19;10310002;28;19949;-66
2021/04/12 23:19:10;;;;;;;;;;;;;;;5.53;56.98;101466.44;10307257;28;20400;-64
2021/04/12 23:24:50;;;;;;;;;;;;;;;5.52;56.44;101472.63;10309572;28;19929;-66
2021/04/12 23:29:54;;;;;;;;;;;;;;;5.55;55.78;101470.72;10160699;29;20381;-66
2021/04/12 23:34:56;;;;;;;;;;;;;;;5.44;55.19;101470.28;10277258;28;19937;-67
2021/04/12 23:40:04;;;;;;;;;;;;;;;5.56;56.46;101475.09;10310892;28;19969;-66
2021/04/12 23:45:07;;;;;;;;;;;;;;;5.58;54.96;101480.31;10312725;28;20011;-66
2021/04/12 23:50:22;;;;;;;;;;;;;;;5.53;55.03;101475.22;10309916;28;19926;-67
2021/04/12 23:55:41;;;;;;;;;;;;;;;5.55;55.24;101470.72;10313383;28;19968;-66
